Aérodrome :
LOGIN :

S'inscrire | Disclaimer

   EN    FR    IT 

 










Légende :    VFR   VFR Marginal   IFR   IFR Intensif   IFR Très Intensif
Visi : 
Plafond : 
>= 8 km
>= 3000ft
5 à 8 km
1000 à 3000 ft
1500m à 5 km
500 à 1000 ft
800 à 1500m
200 à 500 ft
< 800m
< 200 ft
Symboles :   Orages  Brouillard  Fortes neiges  Fortes précipitations  Vent > 20 kt
SIGMETs :   Divers  Orages  Givrage  Turbulence  Onde Orograph.  Cendres Volcan.






- Altitude de l'aérodrome : 25 ft
- Code IATA : QCY


EGXC - RAF Coningsby

DERNIER METAR :
  • 180450Z 27003KT CAVOK 10/09 Q1014 RMK BLU

METARs EXPIRÉS :
  • 180350Z 30004KT CAVOK 10/08 Q1013 RMK BLU
  • 180250Z 31006KT CAVOK 11/08 Q1013 RMK BLU
  • 180150Z 31006KT CAVOK 12/09 Q1013 RMK BLU
  • 180050Z 33008KT CAVOK 13/10 Q1013 RMK BLU

TAF TAF EGXC
Valide du 18 à 06h jusqu'au 19 à 00h UTC


180446Z 1806/1824 29005KT CAVOK
PROB30
TEMPO 1808/1811 SCT018
PROB40
TEMPO 1812/1818 6000 SHRA
PROB30
TEMPO 1813/1817 4000 +SHRA BKN025CB
PROB30
TEMPO 1821/1824 SCT010



MET'MAP, la Météo Aéronautique d'un coup d'oeil ! - Copyright ORBIFLY Décembre 2007 - Disclaimer

ORBIFLY MET'MAP TEAM :

Programmation & Développement : Alexandra Zaïnal
Sur une idée originale de : Baudouin d'Aumeries
Soutien technique & logistique : Manuel Goepfert
Assistance : Marc-Olivier Méhu




SOURCES & CREDITS :

   NOAA